Time;durP1;ratioP1;P1;durP2;ratioP2;P2;SDS_P1;SDS_P2;PMS_P1;PMS_P2;Temp;Humidity;BMP_temperature;BMP_pressure;BME280_temperature;BME280_humidity;BME280_pressure;Samples;Min_cycle;Max_cycle;Signal;HPM_P1;HPM_P2
2023/01/08 00:01:04;;;;;;;;;5.67;5.00;;;;;12.11;100.00;100033.06;5027056;28;45641;-87
2023/01/08 00:03:30;;;;;;;;;5.00;4.00;;;;;12.08;100.00;100017.06;5017205;28;47394;-88
2023/01/08 00:06:05;;;;;;;;;2.67;2.67;;;;;11.96;100.00;99985.94;5037678;28;45336;-88
2023/01/08 00:08:31;;;;;;;;;4.67;4.33;;;;;12.26;100.00;100029.00;5018303;28;45163;-87
2023/01/08 00:10:56;;;;;;;;;5.67;4.00;;;;;12.26;100.00;100029.88;5015730;28;46789;-87
2023/01/08 00:13:22;;;;;;;;;6.67;4.67;;;;;12.11;100.00;100001.97;5035664;28;46295;-87
2023/01/08 00:15:51;;;;;;;;;3.33;3.33;;;;;12.01;100.00;99986.09;5037350;28;44863;-87
2023/01/08 00:18:17;;;;;;;;;6.00;5.00;;;;;12.33;100.00;100018.72;5022136;28;44784;-86
2023/01/08 00:20:57;;;;;;;;;7.00;4.67;;;;;12.10;100.00;99995.66;5038082;28;44781;-87
2023/01/08 00:23:27;;;;;;;;;5.67;4.67;;;;;11.97;100.00;99954.66;5037461;28;47019;-88
2023/01/08 00:25:54;;;;;;;;;6.00;3.33;;;;;12.26;100.00;100009.75;5039256;28;44687;-88
2023/01/08 00:28:22;;;;;;;;;7.33;5.00;;;;;12.28;100.00;100030.44;5037317;28;44777;-86
2023/01/08 00:30:48;;;;;;;;;6.00;5.00;;;;;12.29;100.00;100014.78;5014358;28;46322;-87
2023/01/08 00:33:16;;;;;;;;;6.00;4.67;;;;;12.31;100.00;100029.97;5033433;28;45367;-86
2023/01/08 00:35:43;;;;;;;;;8.00;5.00;;;;;12.25;100.00;100005.38;5015046;28;45387;-83
2023/01/08 00:38:10;;;;;;;;;5.00;5.00;;;;;12.23;100.00;99999.25;5014836;28;44733;-86
2023/01/08 00:40:37;;;;;;;;;3.67;3.00;;;;;12.29;100.00;100012.88;5023962;28;45973;-86
2023/01/08 00:43:08;;;;;;;;;5.67;5.00;;;;;12.27;100.00;100023.28;5001721;28;47240;-85
2023/01/08 00:45:38;;;;;;;;;4.67;4.00;;;;;12.24;100.00;100014.66;5024388;28;45224;-88
2023/01/08 00:48:10;;;;;;;;;5.00;4.00;;;;;12.16;100.00;99991.94;5009798;28;45808;-86
2023/01/08 00:50:45;;;;;;;;;3.33;3.33;;;;;12.14;100.00;99985.00;5016780;28;45965;-86
2023/01/08 00:53:18;;;;;;;;;4.00;4.00;;;;;12.01;100.00;99962.19;5008248;28;47345;-85
2023/01/08 00:55:48;;;;;;;;;5.67;3.33;;;;;12.18;100.00;99986.22;5018352;28;45242;-85
2023/01/08 00:58:15;;;;;;;;;6.33;3.67;;;;;12.07;100.00;99960.41;5027724;28;46021;-88
2023/01/08 01:00:44;;;;;;;;;6.00;4.00;;;;;12.13;100.00;99970.44;5011247;28;45338;-86
2023/01/08 01:03:13;;;;;;;;;6.33;3.33;;;;;12.10;100.00;99962.69;5009864;28;47117;-86
2023/01/08 01:05:38;;;;;;;;;3.67;3.67;;;;;11.97;100.00;99950.00;5017772;28;45458;-88
2023/01/08 01:08:05;;;;;;;;;4.00;4.00;;;;;12.13;100.00;99975.94;5028368;28;45375;-86
2023/01/08 01:10:31;;;;;;;;;3.67;3.67;;;;;11.72;100.00;99919.97;5010817;28;45514;-87
2023/01/08 01:13:00;;;;;;;;;6.67;6.00;;;;;11.86;100.00;99949.97;5010976;28;47150;-85
2023/01/08 01:15:29;;;;;;;;;4.67;4.67;;;;;12.05;100.00;99978.19;5026711;28;45474;-87
2023/01/08 01:17:57;;;;;;;;;5.00;4.00;;;;;12.05;100.00;99973.56;5027092;28;45033;-86
2023/01/08 01:20:24;;;;;;;;;6.00;4.33;;;;;11.90;100.00;99963.00;5009184;28;46009;-86
2023/01/08 01:22:54;;;;;;;;;2.33;2.33;;;;;11.77;100.00;99931.06;5005637;28;46419;-85
2023/01/08 01:25:21;;;;;;;;;5.00;3.00;;;;;12.00;100.00;99978.91;5040612;28;45502;-85
2023/01/08 01:27:48;;;;;;;;;3.33;3.33;;;;;11.98;100.00;99976.41;5008033;28;44882;-84
2023/01/08 01:30:16;;;;;;;;;2.33;2.33;;;;;11.98;100.00;99978.31;5011839;28;45337;-85
2023/01/08 01:32:43;;;;;;;;;6.67;5.00;;;;;12.00;100.00;99973.41;5024223;28;45518;-84
2023/01/08 01:35:09;;;;;;;;;5.00;4.67;;;;;11.69;100.00;99914.97;5027168;28;45064;-86
2023/01/08 01:37:35;;;;;;;;;5.00;4.00;;;;;11.95;100.00;99954.06;5025000;28;44897;-85
2023/01/08 01:40:03;;;;;;;;;3.00;3.00;;;;;12.06;100.00;99960.66;5029676;28;45553;-84
2023/01/08 01:42:44;;;;;;;;;5.00;4.00;;;;;12.09;100.00;99980.22;5034167;28;45462;-86
2023/01/08 01:45:36;;;;;;;;;4.67;4.67;;;;;12.17;100.00;99985.38;5016556;28;45360;-84
2023/01/08 01:48:15;;;;;;;;;4.00;3.33;;;;;12.21;100.00;99982.16;5013011;28;45365;-86
2023/01/08 01:50:49;;;;;;;;;2.33;2.00;;;;;12.21;100.00;99988.47;5013806;28;46005;-84
2023/01/08 01:53:28;;;;;;;;;4.67;3.00;;;;;12.04;100.00;99955.38;5027936;28;45811;-88
2023/01/08 01:55:58;;;;;;;;;6.33;5.00;;;;;12.25;100.00;99984.19;5029560;28;44770;-88
2023/01/08 01:58:30;;;;;;;;;4.00;4.00;;;;;11.99;100.00;99960.75;5018808;28;45249;-87
2023/01/08 02:01:07;;;;;;;;;4.67;3.00;;;;;11.99;100.00;99974.47;5026580;28;45564;-85
2023/01/08 02:03:36;;;;;;;;;3.00;3.00;;;;;12.14;100.00;99999.63;5031245;28;45351;-86
2023/01/08 02:06:17;;;;;;;;;4.00;4.00;;;;;11.90;100.00;99970.38;5010553;28;45423;-87
2023/01/08 02:08:52;;;;;;;;;3.00;3.00;;;;;12.09;100.00;100004.13;5031998;28;45403;-89
2023/01/08 02:11:36;;;;;;;;;2.33;2.00;;;;;12.04;100.00;99996.59;5029534;28;46073;-88
2023/01/08 02:14:23;;;;;;;;;4.00;3.67;;;;;11.96;100.00;99996.94;5031334;28;46298;-87
2023/01/08 02:17:09;;;;;;;;;3.00;2.00;;;;;11.75;100.00;99974.44;5026872;28;45164;-85
2023/01/08 02:19:44;;;;;;;;;4.00;3.00;;;;;11.78;100.00;99998.69;5026203;28;45366;-86
2023/01/08 02:22:54;;;;;;;;;3.33;3.33;;;;;11.83;100.00;100004.31;5000248;28;45909;-85
2023/01/08 02:25:42;;;;;;;;;3.00;2.00;;;;;11.83;100.00;100008.97;5022010;28;47274;-85
2023/01/08 02:28:13;;;;;;;;;2.67;2.67;;;;;11.75;100.00;99996.41;5024199;28;45566;-85
2023/01/08 02:30:43;;;;;;;;;3.67;3.67;;;;;11.62;100.00;99978.22;5022714;28;46057;-86
2023/01/08 02:33:10;;;;;;;;;3.00;2.00;;;;;11.76;100.00;99989.00;5003158;28;45755;-86
2023/01/08 02:35:41;;;;;;;;;3.67;2.67;;;;;11.76;100.00;100009.06;5002366;28;46774;-86
2023/01/08 02:38:15;;;;;;;;;6.33;3.00;;;;;11.54;100.00;99970.34;5007957;28;45554;-85
2023/01/08 02:40:55;;;;;;;;;2.33;2.33;;;;;11.67;100.00;100007.72;5022571;28;45689;-86
2023/01/08 02:43:47;;;;;;;;;3.33;1.67;;;;;11.60;100.00;99977.63;5004546;28;45924;-84
2023/01/08 02:46:33;;;;;;;;;4.67;3.00;;;;;11.36;100.00;99945.66;5002926;28;46372;-86
2023/01/08 02:49:27;;;;;;;;;1.00;1.00;;;;;11.62;100.00;99993.88;5006576;28;45476;-83
2023/01/08 02:51:59;;;;;;;;;3.67;2.33;;;;;11.60;100.00;100001.50;5020844;28;45367;-88
2023/01/08 02:54:34;;;;;;;;;2.00;2.00;;;;;11.46;100.00;99993.44;5011019;28;45291;-84
2023/01/08 02:57:14;;;;;;;;;5.00;2.00;;;;;11.38;100.00;99980.06;5025011;28;46688;-86
2023/01/08 02:59:41;;;;;;;;;3.67;3.00;;;;;11.40;100.00;99999.88;5027091;28;45604;-86
2023/01/08 03:02:07;;;;;;;;;1.33;1.33;;;;;11.28;100.00;99982.53;5014041;28;45464;-87
2023/01/08 03:04:49;;;;;;;;;2.67;2.67;;;;;11.20;100.00;99971.88;5018328;28;45408;-85
2023/01/08 03:07:17;;;;;;;;;4.00;2.33;;;;;11.26;100.00;99982.75;5031928;28;45335;-85
2023/01/08 03:09:53;;;;;;;;;2.00;2.00;;;;;11.12;100.00;99960.16;5033742;28;45436;-86
2023/01/08 03:12:39;;;;;;;;;1.00;1.00;;;;;11.16;100.00;99966.00;5030150;28;45351;-86
2023/01/08 03:15:11;;;;;;;;;3.00;1.33;;;;;11.06;100.00;99947.38;5017790;28;45360;-85
2023/01/08 03:17:43;;;;;;;;;5.00;4.00;;;;;11.20;100.00;99949.94;5006811;28;47560;-84
2023/01/08 03:20:17;;;;;;;;;5.33;2.33;;;;;11.43;100.00;99974.69;5023360;28;45545;-84
2023/01/08 03:22:48;;;;;;;;;2.33;1.33;;;;;11.51;100.00;99969.94;5008531;28;45566;-83
2023/01/08 03:25:18;;;;;;;;;3.67;2.00;;;;;11.57;100.00;99980.84;5002613;28;45483;-84
2023/01/08 03:27:49;;;;;;;;;2.67;2.00;;;;;11.62;100.00;99972.72;5027414;28;46262;-83
2023/01/08 03:30:18;;;;;;;;;4.67;2.00;;;;;11.64;100.00;99961.50;5028541;28;44805;-84
2023/01/08 03:32:47;;;;;;;;;3.67;2.00;;;;;11.68;100.00;99970.09;5022193;28;45344;-83
2023/01/08 03:35:18;;;;;;;;;4.33;4.00;;;;;11.51;100.00;99931.50;5011378;28;45531;-84
2023/01/08 03:37:50;;;;;;;;;3.67;2.67;;;;;11.73;100.00;99967.50;5010946;28;47274;-84
2023/01/08 03:40:25;;;;;;;;;1.67;1.67;;;;;11.38;100.00;99905.94;5009166;28;45313;-85
2023/01/08 03:42:50;;;;;;;;;3.67;2.00;;;;;11.54;100.00;99928.28;5010564;28;45357;-84
2023/01/08 03:45:16;;;;;;;;;2.67;2.33;;;;;11.80;100.00;99954.50;5010783;28;46285;-83
2023/01/08 03:47:44;;;;;;;;;1.33;1.33;;;;;11.53;100.00;99907.41;5012851;28;46941;-84
2023/01/08 03:50:16;;;;;;;;;1.00;1.00;;;;;11.85;100.00;99951.88;5022447;28;45424;-84
2023/01/08 03:52:42;;;;;;;;;3.67;2.00;;;;;11.73;100.00;99923.56;5028007;28;45438;-85
2023/01/08 03:55:09;;;;;;;;;3.33;1.00;;;;;11.92;100.00;99955.34;5021238;28;46105;-85
2023/01/08 03:57:37;;;;;;;;;3.33;2.00;;;;;11.71;100.00;99926.53;5031122;28;46748;-86
2023/01/08 04:00:04;;;;;;;;;3.67;2.67;;;;;11.71;100.00;99925.72;5031234;28;45143;-86
2023/01/08 04:02:36;;;;;;;;;2.67;1.33;;;;;11.66;100.00;99907.16;5020629;28;45480;-85
2023/01/08 04:05:06;;;;;;;;;5.00;2.00;;;;;11.84;100.00;99926.31;5026860;28;44805;-86
2023/01/08 04:07:32;;;;;;;;;2.00;2.00;;;;;11.78;100.00;99923.66;5038223;28;46037;-87
2023/01/08 04:09:58;;;;;;;;;4.00;3.00;;;;;11.71;100.00;99910.06;5038433;28;45332;-87
2023/01/08 04:12:27;;;;;;;;;2.00;2.00;;;;;11.90;100.00;99926.41;5036600;28;44972;-86
2023/01/08 04:14:57;;;;;;;;;2.00;1.00;;;;;11.90;100.00;99923.69;5014552;28;45916;-83
2023/01/08 04:17:23;;;;;;;;;2.00;1.67;;;;;11.74;100.00;99895.84;5027607;28;47683;-86
2023/01/08 04:19:49;;;;;;;;;3.00;1.00;;;;;11.74;100.00;99893.09;5032316;28;44799;-86
2023/01/08 04:22:15;;;;;;;;;3.67;2.00;;;;;11.53;100.00;99849.75;5016650;28;45398;-85
2023/01/08 04:24:44;;;;;;;;;1.00;1.00;;;;;11.87;100.00;99897.53;5035104;28;45672;-87
2023/01/08 04:27:10;;;;;;;;;1.33;0.00;;;;;11.68;100.00;99871.22;5035598;28;45297;-86
2023/01/08 04:29:35;;;;;;;;;3.00;2.00;;;;;11.83;100.00;99880.66;5011123;28;45448;-86
2023/01/08 04:32:02;;;;;;;;;3.33;2.67;;;;;11.91;100.00;99889.63;5010694;28;45460;-85
2023/01/08 04:34:29;;;;;;;;;1.00;1.00;;;;;11.87;100.00;99891.19;5027033;28;45476;-87
2023/01/08 04:36:55;;;;;;;;;3.00;1.00;;;;;11.77;100.00;99870.63;5009383;28;47144;-84
2023/01/08 04:39:21;;;;;;;;;1.00;1.00;;;;;11.54;100.00;99826.69;5027142;28;45802;-85
2023/01/08 04:41:46;;;;;;;;;2.67;2.33;;;;;11.71;100.00;99851.53;5009325;28;45548;-86
2023/01/08 04:44:12;;;;;;;;;1.33;1.33;;;;;11.82;100.00;99881.75;5017478;28;45806;-84
2023/01/08 04:46:38;;;;;;;;;1.67;1.67;;;;;11.79;100.00;99865.72;5018467;28;46876;-85
2023/01/08 04:49:06;;;;;;;;;1.00;1.00;;;;;11.79;100.00;99879.47;5005719;28;45786;-86
2023/01/08 04:51:37;;;;;;;;;1.67;0.67;;;;;11.75;100.00;99875.56;5020003;28;45573;-86
2023/01/08 04:54:04;;;;;;;;;3.67;1.33;;;;;11.71;100.00;99877.09;5014769;28;46184;-85
2023/01/08 04:56:30;;;;;;;;;3.00;1.00;;;;;11.40;100.00;99837.06;5024468;28;45452;-85
2023/01/08 04:58:57;;;;;;;;;1.67;0.00;;;;;11.57;100.00;99876.50;5011153;28;44724;-85
2023/01/08 05:01:25;;;;;;;;;3.00;1.00;;;;;11.47;100.00;99857.00;5024978;28;45434;-86
2023/01/08 05:03:56;;;;;;;;;1.00;1.00;;;;;11.43;100.00;99847.56;5022601;28;47086;-89
2023/01/08 05:06:21;;;;;;;;;2.00;2.00;;;;;11.57;100.00;99865.50;5036147;28;47036;-84
2023/01/08 05:08:47;;;;;;;;;3.00;1.67;;;;;11.37;100.00;99830.13;5026025;28;44862;-83
2023/01/08 05:11:12;;;;;;;;;1.67;1.67;;;;;11.49;100.00;99852.09;5025396;28;45292;-81
2023/01/08 05:13:38;;;;;;;;;3.00;1.33;;;;;11.29;100.00;99825.00;5005598;28;45923;-80
2023/01/08 05:16:04;;;;;;;;;3.00;1.00;;;;;11.28;100.00;99846.09;5011104;28;46890;-81
2023/01/08 05:18:29;;;;;;;;;2.33;1.00;;;;;11.20;100.00;99853.88;5024979;28;45537;-83
2023/01/08 05:20:59;;;;;;;;;3.33;1.67;;;;;11.16;100.00;99863.63;5025222;28;45741;-82
2023/01/08 05:23:25;;;;;;;;;1.33;1.33;;;;;11.04;100.00;99847.97;5025356;28;45356;-81
2023/01/08 05:25:50;;;;;;;;;3.00;3.00;;;;;11.15;100.00;99851.81;5006843;28;46912;-81
2023/01/08 05:28:16;;;;;;;;;0.67;0.67;;;;;11.19;100.00;99847.53;5014404;28;44805;-81
2023/01/08 05:30:42;;;;;;;;;1.00;0.00;;;;;11.22;100.00;99840.75;5014109;28;45822;-82
2023/01/08 05:33:08;;;;;;;;;0.00;0.00;;;;;11.24;100.00;99835.84;5014561;28;45598;-82
2023/01/08 05:35:34;;;;;;;;;0.67;0.67;;;;;11.16;100.00;99836.19;5022002;28;46248;-84
2023/01/08 05:38:00;;;;;;;;;0.00;0.00;;;;;11.11;100.00;99900.84;5007953;28;45606;-83
2023/01/08 05:40:28;;;;;;;;;0.33;0.00;;;;;10.98;100.00;99900.19;5016687;28;45993;-80
2023/01/08 05:42:54;;;;;;;;;1.00;1.00;;;;;10.81;100.00;99889.88;5025487;28;45744;-79
2023/01/08 05:45:19;;;;;;;;;1.67;0.33;;;;;10.84;100.00;99885.81;5020165;28;45713;-78
2023/01/08 05:47:45;;;;;;;;;2.00;1.00;;;;;10.62;100.00;99858.06;5005747;28;45487;-77
2023/01/08 05:50:10;;;;;;;;;0.00;0.00;;;;;10.72;100.00;99875.63;5001343;28;44955;-78
2023/01/08 05:52:36;;;;;;;;;1.00;1.00;;;;;10.66;100.00;99871.09;5014339;28;45698;-77
2023/01/08 05:55:04;;;;;;;;;1.00;0.00;;;;;10.65;100.00;99876.81;5020455;28;45806;-79
2023/01/08 05:57:30;;;;;;;;;0.00;0.00;;;;;10.58;100.00;99868.66;5009972;28;46179;-82
2023/01/08 05:59:56;;;;;;;;;0.00;0.00;;;;;10.48;100.00;99857.38;5007196;28;45463;-82
2023/01/08 06:02:22;;;;;;;;;0.00;0.00;;;;;10.53;100.00;99855.63;5023440;28;45466;-83
2023/01/08 06:04:47;;;;;;;;;0.00;0.00;;;;;10.58;100.00;99868.66;5024233;28;45407;-83
2023/01/08 06:07:13;;;;;;;;;0.00;0.00;;;;;10.39;100.00;99837.69;5015092;28;45213;-83
2023/01/08 06:09:38;;;;;;;;;1.33;0.33;;;;;10.59;100.00;99873.91;5035301;28;45379;-82
2023/01/08 06:12:04;;;;;;;;;0.00;0.00;;;;;10.47;100.00;99862.03;5028424;28;46173;-83
2023/01/08 06:14:30;;;;;;;;;0.00;0.00;;;;;10.42;100.00;99859.16;5025058;28;45599;-83
2023/01/08 06:16:55;;;;;;;;;1.67;1.67;;;;;10.54;100.00;99872.94;5001741;28;45308;-82
2023/01/08 06:19:21;;;;;;;;;5.67;5.67;;;;;10.41;100.00;99852.81;5019597;28;45357;-82
2023/01/08 06:21:46;;;;;;;;;0.00;0.00;;;;;10.32;100.00;99865.13;5023509;28;45752;-82
2023/01/08 06:24:12;;;;;;;;;0.00;0.00;;;;;10.31;100.00;99887.28;5005730;28;48414;-82
2023/01/08 06:26:37;;;;;;;;;0.00;0.00;;;;;10.17;100.00;99883.88;5003699;28;45535;-80
2023/01/08 06:29:03;;;;;;;;;0.00;0.00;;;;;10.10;100.00;99889.41;5020063;28;45321;-81
2023/01/08 06:31:29;;;;;;;;;0.00;0.00;;;;;9.86;100.00;99861.81;4996911;28;46030;-82
2023/01/08 06:33:54;;;;;;;;;2.00;0.67;;;;;9.89;100.00;99882.47;5019352;28;45478;-82
2023/01/08 06:36:20;;;;;;;;;0.00;0.00;;;;;9.84;100.00;99890.53;4999212;28;45680;-82
2023/01/08 06:38:45;;;;;;;;;0.00;0.00;;;;;9.54;100.00;99864.66;5015515;28;46025;-78
2023/01/08 06:41:11;;;;;;;;;0.00;0.00;;;;;9.54;100.00;99878.34;5017988;28;44833;-80
2023/01/08 06:43:44;;;;;;;;;0.00;0.00;;;;;9.50;100.00;99884.50;5018026;28;46251;-85
2023/01/08 06:46:15;;;;;;;;;0.00;0.00;;;;;9.30;100.00;99862.78;5021019;28;45231;-83
2023/01/08 06:48:41;;;;;;;;;0.00;0.00;;;;;9.27;100.00;99875.00;5013320;28;45365;-83
2023/01/08 06:51:07;;;;;;;;;0.00;0.00;;;;;9.20;100.00;99868.72;5005020;28;44834;-82
2023/01/08 06:53:38;;;;;;;;;0.00;0.00;;;;;9.25;100.00;99888.06;4997678;28;46695;-79
2023/01/08 06:56:06;;;;;;;;;0.00;0.00;;;;;9.15;100.00;99885.81;5010976;28;45467;-82
2023/01/08 06:58:31;;;;;;;;;1.00;0.00;;;;;9.10;100.00;99885.66;5011227;28;45702;-83
2023/01/08 07:00:58;;;;;;;;;0.00;0.00;;;;;9.24;100.00;99908.28;5016318;28;45589;-81
2023/01/08 07:03:23;;;;;;;;;0.00;0.00;;;;;9.15;100.00;99883.06;5008044;28;45950;-83
2023/01/08 07:05:49;;;;;;;;;1.00;0.00;;;;;9.25;100.00;99893.53;5016398;28;45174;-85
2023/01/08 07:08:22;;;;;;;;;0.00;0.00;;;;;9.27;100.00;99891.41;5018242;28;45211;-83
2023/01/08 07:10:48;;;;;;;;;0.00;0.00;;;;;9.30;100.00;99896.44;5008591;28;46183;-82
2023/01/08 07:13:14;;;;;;;;;4.00;4.00;;;;;9.43;100.00;99911.06;5008627;28;46057;-83
2023/01/08 07:15:41;;;;;;;;;17.33;11.67;;;;;9.38;100.00;99878.06;5011551;28;45582;-82
2023/01/08 07:18:08;;;;;;;;;0.67;0.00;;;;;9.60;100.00;99894.97;5012578;28;44945;-83
2023/01/08 07:20:35;;;;;;;;;2.00;0.33;;;;;9.58;100.00;99889.72;4996733;28;45646;-83
2023/01/08 07:23:04;;;;;;;;;0.00;0.00;;;;;9.72;100.00;99904.13;4993279;28;47413;-82
2023/01/08 07:25:29;;;;;;;;;0.00;0.00;;;;;9.77;100.00;99908.91;5013380;28;45885;-81
2023/01/08 07:27:56;;;;;;;;;1.00;0.00;;;;;9.82;100.00;99909.91;4993883;28;44846;-81
2023/01/08 07:30:25;;;;;;;;;0.00;0.00;;;;;9.87;100.00;99903.78;5030688;28;45566;-82
2023/01/08 07:33:01;;;;;;;;;2.00;0.00;;;;;9.87;100.00;99892.81;5032330;28;45403;-86
2023/01/08 07:35:37;;;;;;;;;1.00;0.00;;;;;9.99;100.00;99896.47;5038878;28;45450;-86
2023/01/08 07:38:04;;;;;;;;;1.00;0.00;;;;;10.03;100.00;99894.97;5032905;28;44855;-85
2023/01/08 07:40:39;;;;;;;;;0.00;0.00;;;;;9.91;100.00;99885.81;5001281;28;45771;-86
2023/01/08 07:43:05;;;;;;;;;0.67;0.00;;;;;9.94;100.00;99882.63;5025579;28;45831;-84
2023/01/08 07:45:31;;;;;;;;;0.00;0.00;;;;;9.91;100.00;99874.88;5011176;28;45587;-85
2023/01/08 07:48:02;;;;;;;;;4.67;4.00;;;;;9.84;100.00;99885.06;5015941;28;45325;-87
2023/01/08 07:50:28;;;;;;;;;0.00;0.00;;;;;9.62;100.00;99859.97;5031412;28;45287;-84
2023/01/08 07:53:01;;;;;;;;;0.00;0.00;;;;;9.44;100.00;99847.91;5027737;28;46844;-85
2023/01/08 07:55:32;;;;;;;;;0.00;0.00;;;;;9.30;100.00;99822.56;5006594;28;45923;-85
2023/01/08 07:58:07;;;;;;;;;0.00;0.00;;;;;9.49;100.00;99869.97;5005273;28;45623;-85
2023/01/08 08:00:42;;;;;;;;;0.00;0.00;;;;;9.43;100.00;99862.66;5011896;28;45842;-84
2023/01/08 08:03:12;;;;;;;;;0.00;0.00;;;;;9.11;100.00;99820.81;5024405;28;45862;-86
2023/01/08 08:05:46;;;;;;;;;1.00;0.00;;;;;9.24;100.00;99845.34;5020315;28;45707;-88
2023/01/08 08:08:21;;;;;;;;;1.00;1.00;;;;;9.42;100.00;99871.94;4998402;28;45468;-86
2023/01/08 08:11:02;;;;;;;;;1.00;0.00;;;;;9.30;100.00;99858.13;5023901;28;45692;-85
2023/01/08 08:13:29;;;;;;;;;0.00;0.00;;;;;9.17;100.00;99828.13;5013174;28;45389;-87
2023/01/08 08:16:11;;;;;;;;;0.33;0.00;;;;;9.40;100.00;99863.13;5020955;28;45509;-85
2023/01/08 08:18:42;;;;;;;;;1.00;1.00;;;;;9.40;100.00;99856.78;5009892;28;45383;-85
2023/01/08 08:21:22;;;;;;;;;0.67;0.67;;;;;9.29;100.00;99829.09;5021886;28;45351;-84
2023/01/08 08:23:47;;;;;;;;;2.00;0.67;;;;;9.57;100.00;99855.19;5023713;28;46198;-84
2023/01/08 08:26:13;;;;;;;;;0.67;0.67;;;;;9.35;100.00;99800.00;5020929;28;45863;-84
2023/01/08 08:28:50;;;;;;;;;2.00;1.00;;;;;9.69;100.00;99853.38;5029977;28;45351;-85
2023/01/08 08:31:15;;;;;;;;;1.33;0.67;;;;;9.47;100.00;99791.91;5031801;28;45487;-85
2023/01/08 08:33:48;;;;;;;;;1.00;1.00;;;;;9.69;100.00;99812.31;5019331;28;48171;-86
2023/01/08 08:36:13;;;;;;;;;0.33;0.33;;;;;9.87;100.00;99849.00;5023482;28;45519;-84
2023/01/08 08:38:39;;;;;;;;;1.00;1.00;;;;;9.80;100.00;99818.94;5021328;28;46042;-83
2023/01/08 08:41:06;;;;;;;;;0.33;0.00;;;;;9.89;100.00;99823.06;5016748;28;45712;-85
2023/01/08 08:43:31;;;;;;;;;1.00;1.00;;;;;9.82;100.00;99805.00;5013867;28;46712;-84
2023/01/08 08:45:57;;;;;;;;;0.67;0.00;;;;;9.97;100.00;99823.81;5039238;28;45696;-87
2023/01/08 08:48:28;;;;;;;;;0.00;0.00;;;;;9.95;100.00;99813.06;5021612;28;45722;-88
2023/01/08 08:50:55;;;;;;;;;0.00;0.00;;;;;9.99;100.00;99808.00;5023756;28;45650;-85
2023/01/08 08:53:24;;;;;;;;;2.33;0.67;;;;;10.19;100.00;99826.94;5006328;28;45890;-85
2023/01/08 08:55:53;;;;;;;;;3.00;1.00;;;;;10.40;100.00;99801.84;5024730;28;45838;-87
2023/01/08 08:58:50;;;;;;;;;0.00;0.00;;;;;10.99;100.00;99789.38;5028740;28;45896;-83
2023/01/08 09:01:16;;;;;;;;;2.00;2.00;;;;;11.54;100.00;99786.34;4989681;28;45582;-85
2023/01/08 09:03:41;;;;;;;;;3.00;3.00;;;;;12.14;100.00;99765.97;5001350;28;47027;-84
2023/01/08 09:06:22;;;;;;;;;2.00;2.00;;;;;12.84;100.00;99797.03;5018501;28;45663;-85
2023/01/08 09:08:48;;;;;;;;;4.00;3.00;;;;;13.38;100.00;99823.28;5003038;28;45559;-84
2023/01/08 09:11:14;;;;;;;;;1.67;0.67;;;;;13.73;100.00;99813.94;5002187;28;46823;-85
2023/01/08 09:13:51;;;;;;;;;3.33;2.00;;;;;13.88;100.00;99788.50;5014783;28;46150;-86
2023/01/08 09:16:19;;;;;;;;;1.67;1.67;;;;;14.23;100.00;99790.88;5017614;28;45345;-85
2023/01/08 09:18:45;;;;;;;;;0.67;0.67;;;;;14.10;100.00;99766.44;5010825;28;45511;-84
2023/01/08 09:21:12;;;;;;;;;1.67;0.67;;;;;14.12;100.00;99791.84;5016124;28;45564;-84
2023/01/08 09:23:42;;;;;;;;;0.00;0.00;;;;;13.68;100.00;99789.88;5005858;28;47158;-85
2023/01/08 09:26:08;;;;;;;;;2.00;1.67;;;;;13.63;100.00;99778.78;5008929;28;45791;-85
2023/01/08 09:28:43;;;;;;;;;1.00;1.00;;;;;13.34;100.00;99772.56;5004447;28;45537;-84
2023/01/08 09:31:17;;;;;;;;;0.00;0.00;;;;;12.70;100.00;99746.13;5029281;28;45460;-86
2023/01/08 09:33:55;;;;;;;;;1.00;0.00;;;;;12.72;100.00;99793.47;5021412;28;45063;-86
2023/01/08 09:36:26;;;;;;;;;0.00;0.00;;;;;12.80;100.00;99773.84;5021147;28;45929;-85
2023/01/08 09:38:54;;;;;;;;;0.33;0.33;;;;;12.94;100.00;99760.59;4998983;28;45459;-84
2023/01/08 09:41:26;;;;;;;;;0.33;0.00;;;;;13.75;100.00;99792.44;5016470;28;45897;-85
2023/01/08 09:44:02;;;;;;;;;1.00;0.33;;;;;13.96;100.00;99754.97;5020817;28;45466;-86
2023/01/08 09:46:33;;;;;;;;;0.00;0.00;;;;;14.25;100.00;99785.09;5018890;28;45888;-86
2023/01/08 09:49:04;;;;;;;;;7.00;4.67;;;;;14.01;100.00;99760.56;4997357;28;45434;-83
2023/01/08 09:51:35;;;;;;;;;2.00;1.00;;;;;14.02;100.00;99802.75;5004944;28;45855;-87
2023/01/08 09:54:27;;;;;;;;;3.00;1.00;;;;;13.80;100.00;99800.78;5009836;28;47506;-90
2023/01/08 09:57:01;;;;;;;;;0.67;0.67;;;;;13.39;100.00;99781.72;5008447;28;45587;-86
2023/01/08 09:59:29;;;;;;;;;0.00;0.00;;;;;13.70;100.00;99815.25;5028754;28;45302;-90
2023/01/08 10:02:03;;;;;;;;;2.00;0.67;;;;;13.56;100.00;99805.66;5031052;28;45313;-83
2023/01/08 10:04:29;;;;;;;;;1.00;0.67;;;;;13.26;100.00;99776.53;5005951;28;47371;-84
2023/01/08 10:07:11;;;;;;;;;1.33;0.00;;;;;13.40;100.00;99796.34;5008954;28;45436;-85
2023/01/08 10:09:39;;;;;;;;;0.67;0.67;;;;;13.48;100.00;99795.09;5026296;28;45868;-86
2023/01/08 10:12:10;;;;;;;;;5.00;0.67;;;;;13.82;100.00;99806.03;5020783;28;45507;-87
2023/01/08 10:14:52;;;;;;;;;2.00;1.67;;;;;13.92;100.00;99789.66;5010397;28;46505;-86
2023/01/08 10:17:33;;;;;;;;;2.00;2.00;;;;;14.40;100.00;99790.81;5006010;28;45526;-86
2023/01/08 10:20:20;;;;;;;;;11.33;9.00;;;;;14.54;100.00;99802.28;5022536;28;44943;-85
2023/01/08 10:22:47;;;;;;;;;3.33;3.33;;;;;14.54;100.00;99809.75;5006051;28;45299;-85
2023/01/08 10:25:16;;;;;;;;;0.67;0.00;;;;;14.37;100.00;99784.97;5020715;28;45400;-85
2023/01/08 10:27:46;;;;;;;;;0.67;0.67;;;;;14.49;100.00;99805.00;5005146;28;45597;-84
2023/01/08 10:30:18;;;;;;;;;0.33;0.00;;;;;14.51;100.00;99805.56;5014853;28;45667;-85
2023/01/08 10:32:57;;;;;;;;;0.00;0.00;;;;;14.73;100.00;99794.53;4998501;28;45286;-84
2023/01/08 10:35:44;;;;;;;;;6.00;2.00;;;;;14.76;100.00;99776.59;5007574;28;47041;-86
2023/01/08 10:38:59;;;;;;;;;1.33;0.33;;;;;15.18;100.00;99798.00;5020689;28;45605;-86
2023/01/08 10:41:26;;;;;;;;;1.67;0.00;;;;;14.75;100.00;99755.63;4952514;28;45544;-83
2023/01/08 10:44:01;;;;;;;;;1.67;1.67;;;;;14.98;100.00;99795.88;5022707;28;45463;-84
2023/01/08 10:46:43;;;;;;;;;3.33;1.00;;;;;14.62;100.00;99749.41;5002357;28;46941;-87
2023/01/08 10:49:17;;;;;;;;;2.67;1.00;;;;;14.69;100.00;99779.56;5003903;28;46114;-86
2023/01/08 10:51:51;;;;;;;;;2.67;1.67;;;;;14.51;100.00;99747.63;5021780;28;45511;-81
2023/01/08 10:54:32;;;;;;;;;1.00;1.00;;;;;14.60;100.00;99770.91;5022499;28;46491;-85
2023/01/08 10:56:58;;;;;;;;;1.67;0.00;;;;;14.39;100.00;99766.25;5002962;28;46151;-86
2023/01/08 10:59:24;;;;;;;;;0.33;0.00;;;;;14.11;100.00;99729.53;5015270;28;45439;-84
2023/01/08 11:01:54;;;;;;;;;1.67;1.67;;;;;14.21;100.00;99731.59;5032745;28;45324;-84
2023/01/08 11:04:31;;;;;;;;;2.33;2.33;;;;;14.35;100.00;99756.81;5013287;28;45919;-85
2023/01/08 11:07:09;;;;;;;;;0.67;0.33;;;;;14.18;100.00;99712.78;5019489;28;46023;-86
2023/01/08 11:09:44;;;;;;;;;4.00;0.67;;;;;14.25;100.00;99736.31;5022237;28;44803;-89
2023/01/08 11:12:35;;;;;;;;;0.33;0.33;;;;;14.32;100.00;99727.00;5010954;28;45933;-82
2023/01/08 11:15:01;;;;;;;;;4.33;2.33;;;;;14.39;100.00;99724.88;5020781;28;45785;-83
2023/01/08 11:17:27;;;;;;;;;1.00;1.00;;;;;14.49;100.00;99722.25;5009371;28;45571;-83
2023/01/08 11:19:53;;;;;;;;;0.33;0.33;;;;;14.51;100.00;99728.31;5013899;28;45994;-82
2023/01/08 11:22:21;;;;;;;;;3.00;1.00;;;;;14.52;100.00;99730.00;5010925;28;45999;-82
2023/01/08 11:24:46;;;;;;;;;2.00;2.00;;;;;14.43;100.00;99728.78;5013840;28;46195;-82
2023/01/08 11:27:14;;;;;;;;;1.33;1.00;;;;;14.34;100.00;99700.00;5014785;28;46649;-81
2023/01/08 11:29:50;;;;;;;;;2.67;0.00;;;;;14.23;100.00;99721.94;5016029;28;46243;-83
2023/01/08 11:32:31;;;;;;;;;2.00;1.00;;;;;14.32;100.00;99713.22;5010685;28;45615;-82
2023/01/08 11:35:02;;;;;;;;;0.00;0.00;;;;;14.24;100.00;99687.75;5013828;28;45407;-82
2023/01/08 11:37:34;;;;;;;;;0.67;0.67;;;;;14.32;100.00;99693.91;5008330;28;45660;-84
2023/01/08 11:40:00;;;;;;;;;0.00;0.00;;;;;14.22;100.00;99667.91;5016488;28;45542;-83
2023/01/08 11:42:47;;;;;;;;;3.67;0.67;;;;;14.22;100.00;99684.44;5034811;28;45354;-83